createdAt,value
2018-06-19T00:43:51.400Z,17.40
2018-06-19T00:46:22.014Z,17.40
2018-06-19T00:48:50.797Z,17.40
2018-06-19T00:51:19.559Z,17.30
2018-06-19T00:53:48.397Z,17.40
2018-06-19T00:56:28.243Z,17.30
2018-06-19T00:58:56.925Z,17.30
2018-06-19T01:01:25.749Z,17.30
2018-06-19T01:03:54.645Z,17.30
2018-06-19T01:06:23.496Z,17.20
2018-06-19T01:11:52.499Z,17.20
2018-06-19T01:14:21.441Z,17.20
2018-06-19T01:16:50.338Z,17.20
2018-06-19T01:19:19.164Z,17.10
2018-06-19T01:21:47.856Z,17.10
2018-06-19T01:24:16.704Z,17.10
2018-06-19T01:29:13.843Z,17.10
2018-06-19T01:31:42.856Z,17.00
2018-06-19T01:34:11.471Z,17.00
2018-06-19T01:36:40.266Z,17.00
2018-06-19T01:39:10.589Z,17.00
2018-06-19T01:41:39.585Z,17.00
2018-06-19T01:44:08.653Z,17.00
2018-06-19T01:46:37.342Z,17.10
2018-06-19T01:51:34.604Z,17.10
2018-06-19T01:54:03.211Z,17.10
2018-06-19T01:56:31.934Z,17.10
2018-06-19T01:59:00.718Z,17.10
2018-06-19T02:01:29.619Z,17.10
2018-06-19T02:03:58.440Z,17.10
2018-06-19T02:06:27.123Z,17.10
2018-06-19T02:08:56.018Z,17.10
2018-06-19T02:11:24.625Z,17.10
2018-06-19T02:13:53.488Z,17.10
2018-06-19T02:16:22.090Z,17.10
2018-06-19T02:18:51.066Z,17.20
2018-06-19T02:21:19.716Z,17.10
2018-06-19T02:23:48.539Z,17.10
2018-06-19T02:26:17.340Z,17.10
2018-06-19T02:28:45.965Z,17.20
2018-06-19T02:31:14.852Z,17.10
2018-06-19T02:33:43.731Z,17.10
2018-06-19T02:36:12.592Z,17.20
2018-06-19T02:38:41.425Z,17.10
2018-06-19T02:41:10.299Z,17.10
2018-06-19T02:43:38.926Z,17.20
2018-06-19T02:46:07.900Z,17.10
2018-06-19T02:48:36.571Z,17.20
2018-06-19T02:51:05.195Z,17.10
2018-06-19T02:53:34.204Z,17.10
2018-06-19T02:56:03.223Z,17.10
2018-06-19T02:58:32.096Z,17.00
2018-06-19T03:01:01.060Z,17.00
2018-06-19T03:03:29.782Z,17.00
2018-06-19T03:05:58.789Z,17.00
2018-06-19T03:08:27.696Z,17.00
2018-06-19T03:10:56.481Z,17.10
2018-06-19T03:13:25.494Z,17.10
2018-06-19T03:15:54.453Z,17.10
2018-06-19T03:18:23.086Z,17.10
2018-06-19T03:20:51.850Z,17.10
2018-06-19T03:23:20.724Z,17.10
2018-06-19T03:25:49.282Z,17.10
2018-06-19T03:28:18.330Z,17.10
2018-06-19T03:30:46.922Z,17.10
2018-06-19T03:33:15.676Z,17.10
2018-06-19T03:35:44.313Z,17.10
2018-06-19T03:38:13.324Z,17.10
2018-06-19T03:40:41.935Z,17.10
2018-06-19T03:43:10.838Z,17.10
2018-06-19T03:45:39.742Z,17.10
2018-06-19T03:48:08.630Z,17.10
2018-06-19T03:50:37.444Z,17.10
2018-06-19T03:53:06.251Z,17.10
2018-06-19T03:55:35.205Z,17.10
2018-06-19T03:58:04.106Z,17.00
2018-06-19T04:00:32.898Z,17.00
2018-06-19T04:03:01.681Z,17.00
2018-06-19T04:05:30.675Z,17.00
2018-06-19T04:07:59.606Z,17.00
2018-06-19T04:10:28.585Z,17.00
2018-06-19T04:12:57.465Z,17.00
2018-06-19T04:15:26.153Z,17.10
2018-06-19T04:17:54.843Z,17.10
2018-06-19T04:20:23.574Z,17.10
2018-06-19T04:22:52.546Z,17.10
2018-06-19T04:25:21.233Z,17.10
2018-06-19T04:27:49.829Z,17.10
2018-06-19T04:30:18.635Z,17.10
2018-06-19T04:32:47.542Z,17.10
2018-06-19T04:35:16.335Z,17.10
2018-06-19T04:40:13.741Z,17.20
2018-06-19T04:42:42.589Z,17.20
2018-06-19T04:45:11.424Z,17.20
2018-06-19T04:47:40.148Z,17.20
2018-06-19T04:50:08.951Z,17.20
2018-06-19T04:52:37.874Z,17.20
2018-06-19T04:55:06.635Z,17.20
2018-06-19T04:57:35.265Z,17.20
2018-06-19T05:00:04.423Z,17.20
2018-06-19T05:02:33.382Z,17.30
2018-06-19T05:05:02.040Z,17.30
2018-06-19T05:07:30.896Z,17.30
2018-06-19T05:09:59.679Z,17.30
2018-06-19T05:12:28.289Z,17.40
2018-06-19T05:14:56.977Z,17.40
2018-06-19T05:17:25.994Z,17.40
2018-06-19T05:19:54.696Z,17.40
2018-06-19T05:22:23.410Z,17.50
2018-06-19T05:24:52.118Z,17.50
2018-06-19T05:27:20.998Z,17.50
2018-06-19T05:29:49.941Z,17.50
2018-06-19T05:32:18.682Z,17.50
2018-06-19T05:34:47.460Z,17.50
2018-06-19T05:37:16.189Z,17.60
2018-06-19T05:39:44.967Z,17.60
2018-06-19T05:42:13.926Z,17.60
2018-06-19T05:44:42.624Z,17.60
2018-06-19T05:47:11.576Z,17.60
2018-06-19T05:49:40.206Z,17.60
2018-06-19T05:52:08.904Z,17.60
2018-06-19T05:54:37.674Z,17.70
2018-06-19T05:57:06.316Z,17.70
2018-06-19T05:59:34.906Z,17.80
2018-06-19T06:02:03.873Z,17.80
2018-06-19T06:04:32.470Z,17.80
2018-06-19T06:07:01.323Z,17.80
2018-06-19T06:09:29.989Z,17.80
2018-06-19T06:11:58.656Z,17.90
2018-06-19T06:14:27.473Z,17.90
2018-06-19T06:16:56.110Z,17.90
2018-06-19T06:19:24.982Z,18.00
2018-06-19T06:21:53.703Z,18.00
2018-06-19T06:24:22.759Z,18.10
2018-06-19T06:26:51.430Z,18.10
2018-06-19T06:29:20.169Z,18.20
2018-06-19T06:31:48.925Z,18.20
2018-06-19T06:34:17.829Z,18.20
2018-06-19T06:36:46.654Z,18.20
2018-06-19T06:39:15.622Z,18.20
2018-06-19T06:41:44.462Z,18.20
2018-06-19T06:44:13.391Z,18.30
2018-06-19T06:46:42.210Z,18.30
2018-06-19T06:49:10.812Z,18.30
2018-06-19T06:51:39.422Z,18.40
2018-06-19T06:54:08.357Z,18.40
2018-06-19T06:56:37.239Z,18.40
2018-06-19T06:59:06.315Z,18.40
2018-06-19T07:01:34.988Z,18.40
2018-06-19T07:04:03.846Z,18.40
2018-06-19T07:06:32.804Z,18.50
2018-06-19T07:09:01.702Z,18.50
2018-06-19T07:11:30.302Z,18.40
2018-06-19T07:13:59.065Z,18.40
2018-06-19T07:16:27.945Z,18.40
2018-06-19T07:18:56.995Z,18.40
2018-06-19T07:21:25.967Z,18.50
2018-06-19T07:23:54.707Z,18.50
2018-06-19T07:26:24.092Z,18.50
2018-06-19T07:28:53.585Z,18.50
2018-06-19T07:31:22.450Z,18.50
2018-06-19T07:33:51.429Z,18.50
2018-06-19T07:36:20.082Z,18.50
2018-06-19T07:38:48.907Z,18.50
2018-06-19T07:41:18.019Z,18.50
2018-06-19T07:43:46.642Z,18.50
2018-06-19T07:46:15.689Z,18.50
2018-06-19T07:48:44.472Z,18.50
2018-06-19T07:51:13.433Z,18.50
2018-06-19T07:53:42.250Z,18.50
2018-06-19T07:56:10.879Z,18.50
2018-06-19T07:58:39.966Z,18.50
2018-06-19T08:01:09.217Z,18.50
2018-06-19T08:06:06.682Z,18.50
2018-06-19T08:08:36.161Z,18.50
2018-06-19T08:11:05.015Z,18.60
2018-06-19T08:13:34.117Z,18.50
2018-06-19T08:16:02.999Z,18.50
2018-06-19T08:18:31.768Z,18.60
2018-06-19T08:21:00.378Z,18.60
2018-06-19T08:23:29.531Z,18.60
2018-06-19T08:25:58.477Z,18.60
2018-06-19T08:28:27.313Z,18.70
2018-06-19T08:30:56.235Z,18.70
2018-06-19T08:33:25.065Z,18.70
2018-06-19T08:35:53.992Z,18.70
2018-06-19T08:38:22.908Z,18.70
2018-06-19T08:43:20.282Z,18.70
2018-06-19T08:45:49.546Z,18.70
2018-06-19T08:48:18.280Z,18.70
2018-06-19T08:50:47.245Z,18.70
2018-06-19T08:53:15.946Z,18.70
2018-06-19T08:55:44.934Z,18.70
2018-06-19T08:58:14.098Z,18.60
2018-06-19T09:00:42.878Z,18.70
2018-06-19T09:03:12.066Z,18.70
2018-06-19T09:05:41.221Z,18.70
2018-06-19T09:08:10.266Z,18.70
2018-06-19T09:10:39.029Z,18.70
2018-06-19T09:13:08.609Z,18.70
2018-06-19T09:15:38.332Z,18.70
2018-06-19T09:18:07.787Z,18.60
2018-06-19T09:20:37.934Z,18.60
2018-06-19T09:23:07.638Z,18.60
2018-06-19T09:25:37.218Z,18.60
2018-06-19T09:28:06.908Z,18.60
2018-06-19T09:30:37.405Z,18.60
2018-06-19T09:33:06.958Z,18.60
2018-06-19T09:35:36.875Z,18.60
2018-06-19T09:38:06.771Z,18.60
2018-06-19T09:40:36.207Z,18.70
2018-06-19T09:43:06.520Z,18.70
2018-06-19T09:45:36.627Z,18.80
2018-06-19T09:48:06.953Z,18.80
2018-06-19T09:50:35.570Z,18.80
2018-06-19T09:53:04.422Z,18.80
2018-06-19T09:55:33.487Z,18.80
2018-06-19T09:58:02.476Z,18.80
2018-06-19T10:00:34.664Z,18.90
2018-06-19T10:03:03.517Z,18.80
2018-06-19T10:05:32.932Z,18.80
2018-06-19T10:08:02.254Z,18.80
2018-06-19T10:10:31.222Z,18.80
2018-06-19T10:13:00.260Z,18.90
2018-06-19T10:15:29.251Z,18.90
2018-06-19T10:17:57.891Z,18.90
2018-06-19T10:20:26.871Z,19.00
2018-06-19T10:22:55.579Z,19.00
2018-06-19T10:25:24.522Z,19.00
2018-06-19T10:27:53.379Z,19.00
2018-06-19T10:30:22.203Z,19.00
2018-06-19T10:32:50.948Z,19.10
2018-06-19T10:35:19.941Z,19.10
2018-06-19T10:37:48.788Z,19.10
2018-06-19T10:40:17.941Z,19.10
2018-06-19T10:42:46.723Z,19.10
2018-06-19T10:45:15.655Z,19.10
2018-06-19T10:47:44.548Z,19.10
2018-06-19T10:50:13.409Z,19.10
2018-06-19T10:52:42.201Z,19.10
2018-06-19T10:55:10.848Z,19.10
2018-06-19T10:57:39.810Z,19.10
2018-06-19T11:00:09.344Z,19.10
2018-06-19T11:02:38.089Z,19.10
2018-06-19T11:05:06.902Z,19.10
2018-06-19T11:07:35.745Z,19.10
2018-06-19T11:10:04.814Z,19.10
2018-06-19T11:12:33.712Z,19.20
2018-06-19T11:15:02.686Z,19.10
2018-06-19T11:17:31.606Z,19.10
2018-06-19T11:20:00.519Z,19.10
2018-06-19T11:22:29.471Z,19.10
2018-06-19T11:24:58.501Z,19.10
2018-06-19T11:27:27.437Z,19.10
2018-06-19T11:29:56.159Z,19.00
2018-06-19T11:32:24.893Z,19.00
2018-06-19T11:37:22.252Z,19.00
2018-06-19T11:39:51.015Z,19.00
2018-06-19T11:42:19.951Z,19.00
2018-06-19T11:44:48.933Z,19.00
2018-06-19T11:47:17.718Z,19.00
2018-06-19T11:49:46.466Z,19.00
2018-06-19T11:52:15.272Z,19.00
2018-06-19T11:54:44.305Z,19.10
2018-06-19T11:57:12.884Z,19.10
2018-06-19T11:59:41.514Z,19.10
2018-06-19T12:02:10.341Z,19.10
2018-06-19T12:04:39.166Z,19.10
2018-06-19T12:07:08.010Z,19.10
2018-06-19T12:09:36.871Z,19.10
2018-06-19T12:12:05.880Z,19.10
2018-06-19T12:14:34.870Z,19.10
2018-06-19T12:17:03.513Z,19.10
2018-06-19T12:19:32.238Z,19.10
2018-06-19T12:22:01.503Z,19.10
2018-06-19T12:24:30.546Z,19.00
2018-06-19T12:26:59.533Z,19.00
2018-06-19T12:29:28.164Z,19.00
2018-06-19T12:31:56.819Z,19.10
2018-06-19T12:34:25.907Z,19.00
2018-06-19T12:36:54.777Z,19.00
2018-06-19T12:39:23.703Z,19.10
2018-06-19T12:41:52.691Z,19.10
2018-06-19T12:44:21.525Z,19.10
2018-06-19T12:46:50.491Z,19.10
2018-06-19T12:49:30.319Z,19.10
2018-06-19T12:52:10.414Z,19.10
2018-06-19T12:57:13.394Z,19.10
2018-06-19T12:59:42.095Z,19.10
2018-06-19T13:02:11.033Z,19.00
2018-06-19T13:04:50.984Z,19.10
2018-06-19T13:07:19.801Z,19.10
2018-06-19T13:09:48.934Z,19.10
2018-06-19T13:12:28.896Z,19.10
2018-06-19T13:14:57.519Z,19.10
2018-06-19T13:17:37.554Z,19.10
2018-06-19T13:20:17.506Z,19.10
2018-06-19T13:22:46.564Z,19.10
2018-06-19T13:25:15.463Z,19.10
2018-06-19T13:27:44.303Z,19.10
2018-06-19T13:30:24.198Z,19.10
2018-06-19T13:35:21.596Z,19.10
2018-06-19T13:37:50.315Z,19.10
2018-06-19T13:41:28.991Z,19.10
2018-06-19T13:44:11.444Z,19.10
2018-06-19T13:46:40.486Z,19.00
2018-06-19T13:49:09.495Z,19.00
2018-06-19T13:51:38.348Z,19.00
2018-06-19T13:54:07.272Z,19.00
2018-06-19T13:57:46.511Z,19.10
2018-06-19T14:00:16.980Z,19.00
2018-06-19T14:02:45.755Z,19.00
2018-06-19T14:05:15.628Z,19.00
2018-06-19T14:08:01.649Z,19.00
2018-06-19T14:11:45.070Z,19.00
2018-06-19T14:14:14.021Z,19.00
2018-06-19T14:16:42.814Z,19.00
2018-06-19T14:19:11.451Z,19.00
2018-06-19T14:21:40.319Z,19.00
2018-06-19T14:24:09.320Z,19.00
2018-06-19T14:26:38.093Z,19.00
2018-06-19T14:29:07.111Z,19.00
2018-06-19T14:31:35.712Z,19.10
2018-06-19T14:34:04.706Z,19.10
2018-06-19T14:36:33.501Z,19.10
2018-06-19T14:39:02.547Z,19.10
2018-06-19T14:41:31.399Z,19.10
2018-06-19T14:44:00.261Z,19.10
2018-06-19T14:46:29.186Z,19.10
2018-06-19T14:48:58.127Z,19.10
2018-06-19T14:51:26.806Z,19.10
2018-06-19T14:53:55.537Z,19.10
2018-06-19T14:56:24.523Z,19.10
2018-06-19T14:58:54.184Z,19.10
2018-06-19T15:01:23.010Z,19.00
2018-06-19T15:03:51.655Z,19.00
2018-06-19T15:06:20.305Z,19.00
2018-06-19T15:08:49.188Z,19.00
2018-06-19T15:11:17.858Z,19.00
2018-06-19T15:13:46.721Z,19.00
2018-06-19T15:16:15.671Z,19.00
2018-06-19T15:18:44.634Z,19.00
2018-06-19T15:21:13.516Z,19.00
2018-06-19T15:23:42.514Z,19.00
2018-06-19T15:26:11.494Z,19.00
2018-06-19T15:28:40.387Z,19.00
2018-06-19T15:31:09.309Z,19.00
2018-06-19T15:33:37.918Z,19.00
2018-06-19T15:36:06.751Z,19.00
2018-06-19T15:38:35.498Z,19.00
2018-06-19T15:41:04.356Z,19.00
2018-06-19T15:43:33.132Z,19.00
2018-06-19T15:46:01.770Z,19.00
2018-06-19T15:48:30.538Z,19.00
2018-06-19T15:50:59.314Z,19.00
2018-06-19T15:53:28.119Z,19.00
2018-06-19T15:55:57.118Z,19.00
2018-06-19T15:58:25.787Z,19.10
2018-06-19T16:00:54.670Z,19.00
2018-06-19T16:03:23.330Z,19.00
2018-06-19T16:05:52.133Z,19.00
2018-06-19T16:08:21.165Z,19.00
2018-06-19T16:10:50.371Z,19.00
2018-06-19T16:13:19.248Z,19.00
2018-06-19T16:15:48.103Z,19.00
2018-06-19T16:18:16.950Z,19.00
2018-06-19T16:20:46.019Z,19.00
2018-06-19T16:23:14.867Z,19.00
2018-06-19T16:25:43.653Z,19.00
2018-06-19T16:28:12.504Z,19.00
2018-06-19T16:30:41.369Z,19.00
2018-06-19T16:35:38.615Z,19.10
2018-06-19T16:38:07.334Z,19.10
2018-06-19T16:40:36.003Z,19.10
2018-06-19T16:43:04.808Z,19.10
2018-06-19T16:45:33.755Z,19.10
2018-06-19T16:48:02.557Z,19.10
2018-06-19T16:50:31.170Z,19.10
2018-06-19T16:52:59.933Z,19.10
2018-06-19T16:55:28.830Z,19.10
2018-06-19T16:57:57.666Z,19.10
2018-06-19T17:00:26.539Z,19.10
2018-06-19T17:02:55.222Z,19.10
2018-06-19T17:05:24.118Z,19.10
2018-06-19T17:07:53.109Z,19.10
2018-06-19T17:10:21.869Z,19.10
2018-06-19T17:12:50.918Z,19.10
2018-06-19T17:15:19.794Z,19.10
2018-06-19T17:17:48.573Z,19.10
2018-06-19T17:20:17.343Z,19.10
2018-06-19T17:22:46.125Z,19.10
2018-06-19T17:25:15.017Z,19.10
2018-06-19T17:27:43.735Z,19.10
2018-06-19T17:30:12.728Z,19.10
2018-06-19T17:32:41.538Z,19.10
2018-06-19T17:35:10.396Z,19.10
2018-06-19T17:37:39.197Z,19.10
2018-06-19T17:40:07.983Z,19.10
2018-06-19T17:42:36.858Z,19.10
2018-06-19T17:45:05.528Z,19.10
2018-06-19T17:47:34.313Z,19.10
2018-06-19T17:50:03.234Z,19.10
2018-06-19T17:52:32.034Z,19.10
2018-06-19T17:57:29.289Z,19.10
2018-06-19T17:59:58.075Z,19.10
2018-06-19T18:02:27.890Z,19.10
2018-06-19T18:04:56.726Z,19.10
2018-06-19T18:07:25.762Z,19.10
2018-06-19T18:09:54.509Z,19.10
2018-06-19T18:12:23.330Z,19.10
2018-06-19T18:14:51.973Z,19.00
2018-06-19T18:17:20.744Z,19.10
2018-06-19T18:19:49.482Z,19.00
2018-06-19T18:22:18.122Z,19.00
2018-06-19T18:24:47.090Z,19.10
2018-06-19T18:27:15.752Z,19.10
2018-06-19T18:29:44.485Z,19.10
2018-06-19T18:32:13.073Z,19.10
2018-06-19T18:34:42.076Z,19.10
2018-06-19T18:37:10.827Z,19.00
2018-06-19T18:39:39.740Z,19.10
2018-06-19T18:42:08.350Z,19.00
2018-06-19T18:44:37.073Z,19.00
2018-06-19T18:47:06.160Z,19.10
2018-06-19T18:49:35.215Z,19.00
2018-06-19T18:52:04.049Z,19.00
2018-06-19T18:54:32.866Z,19.10
2018-06-19T18:57:01.675Z,19.00
2018-06-19T18:59:30.547Z,19.00
2018-06-19T19:01:59.451Z,19.00
2018-06-19T19:04:28.116Z,19.00
2018-06-19T19:06:57.147Z,19.00
2018-06-19T19:09:26.377Z,19.10
2018-06-19T19:11:55.134Z,19.00
2018-06-19T19:14:23.895Z,19.00
2018-06-19T19:16:58.057Z,19.00
2018-06-19T19:19:26.878Z,19.00
2018-06-19T19:21:55.676Z,19.00
2018-06-19T19:24:24.507Z,19.00
2018-06-19T19:26:58.463Z,19.00
2018-06-19T19:29:32.450Z,19.00
2018-06-19T19:32:01.634Z,19.00
2018-06-19T19:34:30.517Z,19.00
2018-06-19T19:37:04.778Z,19.00
2018-06-19T19:39:33.775Z,19.00
2018-06-19T19:42:02.605Z,19.00
2018-06-19T19:44:31.505Z,19.00
2018-06-19T19:47:05.583Z,19.00
2018-06-19T19:49:34.541Z,19.00
2018-06-19T19:52:03.409Z,19.00
2018-06-19T19:54:32.290Z,19.00
2018-06-19T19:58:08.415Z,19.00
2018-06-19T20:00:37.489Z,19.00
2018-06-19T20:03:06.534Z,19.00
2018-06-19T20:05:35.429Z,19.00
2018-06-19T20:08:04.254Z,19.00
2018-06-19T20:10:33.014Z,19.00
2018-06-19T20:13:01.990Z,19.00
2018-06-19T20:15:30.991Z,19.00
2018-06-19T20:17:59.777Z,19.00
2018-06-19T20:20:28.494Z,19.00
2018-06-19T20:25:25.664Z,19.00
2018-06-19T20:27:54.430Z,19.00
2018-06-19T20:30:23.321Z,19.00
2018-06-19T20:32:51.994Z,19.00
2018-06-19T20:35:20.711Z,19.00
2018-06-19T20:37:49.305Z,19.00
2018-06-19T20:40:18.212Z,19.00
2018-06-19T20:42:47.073Z,19.00
2018-06-19T20:45:15.999Z,19.00
2018-06-19T20:47:44.716Z,19.00
2018-06-19T20:50:13.773Z,19.00
2018-06-19T20:52:42.549Z,18.90
2018-06-19T20:55:11.301Z,18.90
2018-06-19T20:57:40.231Z,18.90
2018-06-19T21:00:09.222Z,18.90
2018-06-19T21:02:38.254Z,18.90
2018-06-19T21:05:07.196Z,18.80
2018-06-19T21:07:36.148Z,18.80
2018-06-19T21:10:05.119Z,18.80
2018-06-19T21:12:33.708Z,18.80
2018-06-19T21:15:02.433Z,18.80
2018-06-19T21:17:31.326Z,18.70
2018-06-19T21:19:59.964Z,18.70
2018-06-19T21:22:28.522Z,18.70
2018-06-19T21:24:57.428Z,18.70
2018-06-19T21:27:26.294Z,18.60
2018-06-19T21:29:55.124Z,18.70
2018-06-19T21:32:23.894Z,18.60
2018-06-19T21:34:52.520Z,18.60
2018-06-19T21:37:21.529Z,18.50
2018-06-19T21:39:50.354Z,18.60
2018-06-19T21:42:19.699Z,18.50
2018-06-19T21:44:48.466Z,18.50
2018-06-19T21:49:45.690Z,18.50
2018-06-19T21:52:14.342Z,18.50
2018-06-19T21:54:43.380Z,18.40
2018-06-19T21:57:12.155Z,18.40
2018-06-19T21:59:41.056Z,18.40
2018-06-19T22:02:09.875Z,18.40
2018-06-19T22:04:38.847Z,18.40
2018-06-19T22:07:07.576Z,18.40
2018-06-19T22:09:36.541Z,18.40
2018-06-19T22:12:05.222Z,18.40
2018-06-19T22:14:34.103Z,18.40
2018-06-19T22:17:03.031Z,18.40
2018-06-19T22:19:31.775Z,18.30
2018-06-19T22:22:00.602Z,18.30
2018-06-19T22:24:29.458Z,18.30
2018-06-19T22:26:58.052Z,18.30
2018-06-19T22:29:26.974Z,18.30
2018-06-19T22:31:55.927Z,18.30
2018-06-19T22:34:24.639Z,18.20
2018-06-19T22:36:53.553Z,18.20
2018-06-19T22:39:22.411Z,18.20
2018-06-19T22:41:51.056Z,18.20
2018-06-19T22:44:19.904Z,18.20
2018-06-19T22:46:48.945Z,18.10
2018-06-19T22:49:17.678Z,18.10
2018-06-19T22:51:46.623Z,18.10
2018-06-19T22:54:15.379Z,18.20
2018-06-19T22:56:44.144Z,18.10
2018-06-19T22:59:12.840Z,18.10
2018-06-19T23:01:41.779Z,18.10
2018-06-19T23:04:10.519Z,18.00
2018-06-19T23:06:39.394Z,18.00
2018-06-19T23:09:09.071Z,18.00
2018-06-19T23:11:38.035Z,17.90
2018-06-19T23:14:07.006Z,17.90
2018-06-19T23:19:04.146Z,17.90
2018-06-19T23:21:32.978Z,17.90
2018-06-19T23:24:01.755Z,17.80
2018-06-19T23:26:30.534Z,17.90
2018-06-19T23:28:59.492Z,17.90
2018-06-19T23:31:28.355Z,17.90
2018-06-19T23:33:57.180Z,17.80
2018-06-19T23:36:26.222Z,17.80
2018-06-19T23:38:54.904Z,17.80
2018-06-19T23:41:23.898Z,17.80
2018-06-19T23:43:52.795Z,17.70
2018-06-19T23:46:21.809Z,17.70
2018-06-19T23:48:50.675Z,17.70
2018-06-19T23:51:19.347Z,17.70
2018-06-19T23:53:47.993Z,17.60
2018-06-19T23:56:16.753Z,17.60
2018-06-19T23:58:45.605Z,17.60
